Time;durP1;ratioP1;P1;durP2;ratioP2;P2;SDS_P1;SDS_P2;PMS_P1;PMS_P2;Temp;Humidity;BMP_temperature;BMP_pressure;BME280_temperature;BME280_humidity;BME280_pressure;Samples;Min_cycle;Max_cycle;Signal;HPM_P1;HPM_P2
2023/08/16 00:00:53;;;;;;;3.53;1.52;;;;;;;17.32;59.47;100558.38;4987121;28;20046;-64
2023/08/16 00:03:20;;;;;;;3.28;1.92;;;;;;;17.28;60.38;100567.19;4987079;28;20042;-63
2023/08/16 00:05:47;;;;;;;5.00;1.75;;;;;;;17.24;59.89;100565.53;4987726;28;20042;-63
2023/08/16 00:08:13;;;;;;;2.35;1.30;;;;;;;17.20;59.97;100573.44;4985097;28;20042;-61
2023/08/16 00:10:40;;;;;;;4.05;1.65;;;;;;;17.16;60.35;100571.78;4981802;28;20271;-60
2023/08/16 00:13:07;;;;;;;4.72;1.48;;;;;;;17.13;59.95;100574.50;4986021;28;20500;-61
2023/08/16 00:15:34;;;;;;;3.70;1.90;;;;;;;17.10;60.40;100571.94;4986834;28;20046;-62
2023/08/16 00:18:00;;;;;;;2.65;1.60;;;;;;;17.05;60.51;100569.41;4986797;28;20050;-60
2023/08/16 00:20:27;;;;;;;4.15;1.67;;;;;;;17.01;60.40;100569.47;4987384;28;20498;-62
2023/08/16 00:22:54;;;;;;;5.90;1.98;;;;;;;16.98;60.48;100569.56;4985528;28;20046;-61
2023/08/16 00:25:21;;;;;;;3.10;2.22;;;;;;;16.95;60.39;100575.69;4988239;28;20038;-61
2023/08/16 00:27:48;;;;;;;4.35;1.48;;;;;;;16.91;60.23;100572.31;4986722;28;20043;-61
2023/08/16 00:30:15;;;;;;;5.55;2.00;;;;;;;16.87;61.00;100565.41;4984049;28;20050;-63
2023/08/16 00:32:41;;;;;;;3.97;1.73;;;;;;;16.84;61.23;100568.09;4983867;28;20723;-61
2023/08/16 00:35:08;;;;;;;3.00;1.55;;;;;;;16.81;60.61;100562.91;4990527;28;20125;-63
2023/08/16 00:37:35;;;;;;;2.30;1.40;;;;;;;16.78;61.25;100568.19;5006656;28;20073;-63
2023/08/16 00:40:02;;;;;;;6.55;1.52;;;;;;;16.76;60.97;100572.63;5003693;28;20140;-62
2023/08/16 00:42:29;;;;;;;5.00;1.58;;;;;;;16.73;61.68;100575.28;5005638;28;20049;-63
2023/08/16 00:44:56;;;;;;;4.90;2.00;;;;;;;16.69;61.71;100577.13;5006283;28;20041;-63
2023/08/16 00:47:23;;;;;;;2.65;1.77;;;;;;;16.68;61.49;100571.00;5002437;28;20581;-64
2023/08/16 00:49:50;;;;;;;5.22;2.42;;;;;;;16.66;61.94;100564.97;5000280;28;20462;-63
2023/08/16 00:52:17;;;;;;;6.05;2.05;;;;;;;16.64;61.51;100568.47;4986376;28;20491;-62
2023/08/16 00:54:44;;;;;;;4.43;2.10;;;;;;;16.63;61.66;100570.25;4986119;28;20050;-62
2023/08/16 00:57:11;;;;;;;4.85;2.10;;;;;;;16.63;62.52;100565.03;4986537;28;20054;-61
2023/08/16 00:59:38;;;;;;;3.45;2.22;;;;;;;16.64;61.83;100574.59;4987182;28;20096;-63
2023/08/16 01:02:05;;;;;;;3.65;1.63;;;;;;;16.65;62.57;100584.13;4986980;28;20055;-62
2023/08/16 01:04:32;;;;;;;3.20;2.25;;;;;;;16.65;62.83;100581.53;4986423;28;20065;-62
2023/08/16 01:06:58;;;;;;;5.35;1.90;;;;;;;16.65;62.47;100593.75;4980553;28;20058;-61
2023/08/16 01:09:26;;;;;;;5.95;1.92;;;;;;;16.66;62.65;100591.13;4991198;28;20432;-63
2023/08/16 01:17:23;;;;;;;5.25;2.22;;;;;;;16.65;61.75;100596.38;5059275;27;20372;-64
2023/08/16 01:19:53;;;;;;;3.97;2.47;;;;;;;16.64;62.66;100600.72;5019225;28;20406;-62
2023/08/16 01:22:32;;;;;;;3.65;1.95;;;;;;;16.62;62.10;100599.88;5018771;28;20045;-63
2023/08/16 01:25:10;;;;;;;5.50;1.85;;;;;;;16.61;62.44;100598.16;5018778;28;20217;-62
2023/08/16 01:27:37;;;;;;;3.00;1.55;;;;;;;16.61;61.92;100598.16;5019895;28;20038;-61
2023/08/16 01:30:06;;;;;;;4.18;1.83;;;;;;;16.61;62.39;100597.31;5021893;28;20053;-63
2023/08/16 01:32:32;;;;;;;6.38;2.50;;;;;;;16.60;62.72;100606.91;5018174;28;20056;-63
2023/08/16 01:34:59;;;;;;;8.85;2.97;;;;;;;16.56;61.91;100605.25;5023773;28;20166;-65
2023/08/16 01:37:26;;;;;;;7.82;3.50;;;;;;;16.48;62.93;100592.31;5018962;28;20050;-63
2023/08/16 01:39:58;;;;;;;8.35;3.55;;;;;;;16.42;62.21;100601.13;5023155;28;20049;-63
2023/08/16 01:42:25;;;;;;;7.47;2.95;;;;;;;16.37;62.64;100592.50;5022264;28;20049;-62
2023/08/16 01:44:52;;;;;;;8.02;3.08;;;;;;;16.34;62.37;100604.78;5016986;28;20513;-61
2023/08/16 01:47:19;;;;;;;5.90;2.47;;;;;;;16.31;63.07;100600.44;5019396;28;20042;-63
2023/08/16 01:49:46;;;;;;;6.00;3.05;;;;;;;16.27;62.73;100606.63;5026257;28;20471;-63
2023/08/16 01:52:13;;;;;;;4.40;2.72;;;;;;;16.23;62.50;100602.34;5013321;28;20061;-62
2023/08/16 01:54:40;;;;;;;8.18;2.75;;;;;;;16.17;62.53;100600.69;5017987;28;20052;-62
2023/08/16 01:57:06;;;;;;;5.07;2.85;;;;;;;16.13;62.74;100605.13;5016039;28;20045;-62
2023/08/16 01:59:33;;;;;;;5.57;2.05;;;;;;;16.08;62.35;100609.59;5017058;28;20045;-63
2023/08/16 02:02:00;;;;;;;3.83;2.08;;;;;;;16.02;62.39;100602.72;5020175;28;20133;-62
2023/08/16 02:04:26;;;;;;;6.55;2.20;;;;;;;15.98;62.84;100608.00;5018951;28;20037;-64
2023/08/16 02:06:53;;;;;;;4.60;2.20;;;;;;;15.95;62.93;100611.53;5008224;28;20053;-63
2023/08/16 02:09:19;;;;;;;4.65;2.33;;;;;;;15.93;62.98;100603.69;4998387;28;20077;-63
2023/08/16 02:11:46;;;;;;;5.03;2.35;;;;;;;15.90;63.57;100601.09;4996051;28;20050;-64
2023/08/16 02:14:13;;;;;;;6.47;2.03;;;;;;;15.87;63.68;100606.38;4999960;28;20057;-62
2023/08/16 02:16:39;;;;;;;8.93;2.75;;;;;;;15.85;63.25;100604.69;5002931;28;20100;-65
2023/08/16 02:19:06;;;;;;;7.72;2.63;;;;;;;15.84;63.63;100613.41;5003210;28;20434;-64
2023/08/16 02:21:33;;;;;;;4.85;2.50;;;;;;;15.81;63.42;100609.09;5001829;28;20050;-61
2023/08/16 02:23:59;;;;;;;5.60;2.42;;;;;;;15.82;63.62;100608.22;5002488;28;20432;-63
2023/08/16 02:26:26;;;;;;;5.00;2.22;;;;;;;15.82;63.79;100605.59;5001085;28;20046;-63
2023/08/16 02:28:52;;;;;;;4.97;2.88;;;;;;;15.86;63.63;100609.88;4990068;28;20065;-61
2023/08/16 02:31:19;;;;;;;6.38;2.42;;;;;;;15.87;63.98;100614.22;4989359;28;20046;-62
2023/08/16 02:33:46;;;;;;;4.32;2.28;;;;;;;15.88;64.09;100602.88;4988609;28;20133;-61
2023/08/16 02:36:12;;;;;;;5.60;2.20;;;;;;;15.89;64.69;100604.63;4988451;28;20046;-62
2023/08/16 02:38:39;;;;;;;4.70;2.15;;;;;;;15.89;64.72;100602.00;4987463;28;20058;-61
2023/08/16 02:41:06;;;;;;;5.25;2.08;;;;;;;15.90;64.43;100611.56;4989190;28;20046;-63
2023/08/16 02:43:32;;;;;;;6.63;2.13;;;;;;;15.90;64.66;100618.53;4988674;28;20054;-63
2023/08/16 02:45:59;;;;;;;7.47;2.53;;;;;;;15.89;64.75;100625.50;4989469;28;20446;-63
2023/08/16 02:48:26;;;;;;;5.70;2.17;;;;;;;15.87;64.80;100622.06;4989864;28;20050;-65
2023/08/16 02:50:53;;;;;;;5.07;2.55;;;;;;;15.87;64.37;100615.97;4989536;28;20502;-62
2023/08/16 02:53:19;;;;;;;5.22;2.70;;;;;;;15.87;64.19;100616.81;4989045;28;20054;-62
2023/08/16 02:55:46;;;;;;;4.88;2.38;;;;;;;15.88;64.76;100618.53;4989404;28;20507;-65
2023/08/16 02:58:12;;;;;;;6.38;2.33;;;;;;;15.86;64.50;100615.13;4988497;28;20064;-64
2023/08/16 03:00:39;;;;;;;4.47;2.50;;;;;;;15.88;64.42;100618.53;4986678;28;20042;-65
2023/08/16 03:03:06;;;;;;;4.88;2.28;;;;;;;15.89;65.02;100620.28;4988779;28;20475;-62
2023/08/16 03:05:33;;;;;;;4.72;2.33;;;;;;;15.90;64.96;100627.22;4982355;28;20101;-62
2023/08/16 03:07:59;;;;;;;4.57;2.45;;;;;;;15.90;64.66;100627.22;4989882;28;20050;-64
2023/08/16 03:10:26;;;;;;;6.03;2.42;;;;;;;15.89;64.38;100632.47;4988540;28;20057;-62
2023/08/16 03:12:55;;;;;;;4.97;2.10;;;;;;;15.88;64.87;100636.00;4988584;28;20050;-63
2023/08/16 03:15:22;;;;;;;4.93;2.47;;;;;;;15.86;64.46;100625.56;4987951;28;20062;-60
2023/08/16 03:17:48;;;;;;;4.30;2.03;;;;;;;15.85;64.83;100621.22;4990916;28;20522;-63
2023/08/16 03:20:15;;;;;;;7.00;3.08;;;;;;;15.83;64.72;100617.75;4988851;28;20054;-63
2023/08/16 03:22:42;;;;;;;4.57;2.55;;;;;;;15.82;65.12;100623.88;4989400;28;20054;-65
2023/08/16 03:25:08;;;;;;;4.40;2.50;;;;;;;15.81;64.83;100622.16;4986789;28;20069;-64
2023/08/16 03:27:35;;;;;;;7.15;2.85;;;;;;;15.79;65.14;100623.94;4988504;28;20047;-63
2023/08/16 03:30:02;;;;;;;5.15;2.38;;;;;;;15.78;64.97;100627.44;4986959;28;20129;-63
2023/08/16 03:32:29;;;;;;;4.55;2.30;;;;;;;15.76;65.54;100631.78;4988515;28;20429;-65
2023/08/16 03:34:55;;;;;;;9.13;3.22;;;;;;;15.75;64.96;100632.69;4985913;28;20074;-64
2023/08/16 03:37:22;;;;;;;5.45;1.85;;;;;;;15.72;65.58;100628.38;4988437;28;20050;-63
2023/08/16 03:39:51;;;;;;;5.20;2.10;;;;;;;15.70;65.72;100637.13;4999647;28;20042;-62
2023/08/16 03:42:18;;;;;;;4.45;2.58;;;;;;;15.68;65.02;100632.78;5006963;28;20579;-63
2023/08/16 03:44:44;;;;;;;4.72;2.03;;;;;;;15.68;65.39;100631.94;5002351;28;20057;-62
2023/08/16 03:47:11;;;;;;;5.20;2.20;;;;;;;15.69;65.36;100636.25;5005035;28;20046;-65
2023/08/16 03:49:38;;;;;;;4.97;2.58;;;;;;;15.68;65.38;100635.38;5012749;28;20046;-62
2023/08/16 03:52:04;;;;;;;7.40;2.47;;;;;;;15.69;65.69;100633.66;5003782;28;20454;-63
2023/08/16 03:54:31;;;;;;;4.85;2.50;;;;;;;15.68;65.24;100635.38;5007752;28;20054;-62
2023/08/16 03:56:58;;;;;;;6.45;2.50;;;;;;;15.70;65.58;100640.59;5008021;28;20046;-62
2023/08/16 03:59:25;;;;;;;5.10;2.63;;;;;;;15.70;65.39;100635.38;5007852;28;20064;-62
2023/08/16 04:01:51;;;;;;;4.65;2.55;;;;;;;15.71;65.31;100641.47;5000681;28;20046;-62
2023/08/16 04:04:18;;;;;;;5.93;2.65;;;;;;;15.71;65.40;100641.47;5001866;28;20044;-61
2023/08/16 04:06:44;;;;;;;6.32;2.92;;;;;;;15.72;65.70;100645.78;4989241;28;20074;-63
2023/08/16 04:09:11;;;;;;;7.78;2.78;;;;;;;15.71;65.75;100647.56;4987399;28;20046;-65
2023/08/16 04:11:38;;;;;;;6.97;3.00;;;;;;;15.70;65.69;100640.59;4987661;28;20045;-61
2023/08/16 04:14:05;;;;;;;5.95;2.97;;;;;;;15.70;65.70;100644.97;4988328;28;20046;-62
2023/08/16 04:16:31;;;;;;;5.57;3.20;;;;;;;15.68;65.19;100648.44;4985086;28;20046;-62
2023/08/16 04:18:58;;;;;;;6.88;2.88;;;;;;;15.67;65.35;100646.72;4987822;28;20038;-62
2023/08/16 04:21:25;;;;;;;5.95;2.80;;;;;;;15.66;65.21;100650.22;4988177;28;20050;-61
2023/08/16 04:23:51;;;;;;;5.22;2.88;;;;;;;15.65;65.44;100653.72;4987769;28;20412;-62
2023/08/16 04:26:18;;;;;;;7.18;2.60;;;;;;;15.63;65.98;100652.88;4987040;28;20042;-65
2023/08/16 04:28:44;;;;;;;5.57;2.40;;;;;;;15.61;65.18;100646.81;4987376;28;20407;-64
2023/08/16 04:31:12;;;;;;;7.75;2.78;;;;;;;15.60;65.71;100644.22;4984034;28;20050;-65
2023/08/16 04:33:39;;;;;;;6.10;2.95;;;;;;;15.56;65.36;100646.00;4987153;28;20076;-66
2023/08/16 04:36:05;;;;;;;8.88;3.28;;;;;;;15.55;65.71;100646.91;4979460;28;20049;-64
2023/08/16 04:38:32;;;;;;;6.70;3.33;;;;;;;15.52;65.46;100652.16;4988103;28;20042;-65
2023/08/16 04:40:59;;;;;;;6.15;2.58;;;;;;;15.48;65.98;100650.47;5003482;28;20104;-64
2023/08/16 04:43:25;;;;;;;7.13;3.65;;;;;;;15.45;65.77;100647.91;5006521;28;20049;-62
2023/08/16 04:45:52;;;;;;;6.40;3.03;;;;;;;15.42;66.00;100652.28;5002684;28;20046;-63
2023/08/16 04:48:19;;;;;;;6.90;3.22;;;;;;;15.38;65.99;100654.97;5003790;28;20053;-65
2023/08/16 04:50:46;;;;;;;5.97;2.85;;;;;;;15.35;66.28;100658.47;5000110;28;20046;-63
2023/08/16 04:53:12;;;;;;;8.20;3.15;;;;;;;15.32;66.21;100657.63;5007201;28;20050;-63
2023/08/16 04:55:39;;;;;;;6.45;2.92;;;;;;;15.30;66.25;100655.03;5007654;28;20517;-62
2023/08/16 04:58:06;;;;;;;6.07;2.78;;;;;;;15.26;66.13;100655.97;5002784;28;20037;-65
2023/08/16 05:00:33;;;;;;;5.63;3.20;;;;;;;15.26;66.74;100666.41;5005178;28;20039;-64
2023/08/16 05:03:00;;;;;;;6.72;3.33;;;;;;;15.26;66.39;100661.19;5006677;28;20076;-65
2023/08/16 05:05:27;;;;;;;8.80;3.17;;;;;;;15.24;66.79;100658.63;5007170;28;20072;-67
2023/08/16 05:07:54;;;;;;;4.82;2.70;;;;;;;15.25;66.24;100659.47;5007346;28;20054;-63
2023/08/16 05:10:21;;;;;;;6.55;2.55;;;;;;;15.26;66.58;100661.19;5002963;28;20046;-65
2023/08/16 05:12:48;;;;;;;6.60;2.30;;;;;;;15.26;67.14;100666.41;5006585;28;20048;-66
2023/08/16 05:15:15;;;;;;;6.90;2.53;;;;;;;15.27;67.01;100668.16;5004686;28;20734;-63
2023/08/16 05:17:41;;;;;;;7.82;2.92;;;;;;;15.26;66.94;100666.41;5006810;28;20045;-62
2023/08/16 05:20:10;;;;;;;7.32;3.05;;;;;;;15.27;66.74;100668.16;5007072;28;20540;-63
2023/08/16 05:22:36;;;;;;;7.30;3.25;;;;;;;15.27;66.96;100668.16;5006256;28;20042;-63
2023/08/16 05:25:03;;;;;;;6.60;3.25;;;;;;;15.28;67.14;100675.09;5006491;28;20053;-64
2023/08/16 05:27:30;;;;;;;8.63;3.10;;;;;;;15.29;66.97;100676.81;5001961;28;20116;-65
2023/08/16 05:29:58;;;;;;;6.20;2.97;;;;;;;15.29;66.80;100676.81;4999667;28;20528;-63
2023/08/16 05:32:25;;;;;;;8.40;3.40;;;;;;;15.28;67.25;100675.97;5005621;28;20046;-63
2023/08/16 05:34:53;;;;;;;7.20;2.85;;;;;;;15.29;67.28;100676.81;5001988;28;20107;-64
2023/08/16 05:37:20;;;;;;;7.30;3.33;;;;;;;15.36;67.62;100678.47;5005387;28;20475;-61
2023/08/16 05:39:48;;;;;;;10.93;3.20;;;;;;;15.47;67.23;100680.94;4998458;28;20050;-62
2023/08/16 05:42:15;;;;;;;8.18;4.15;;;;;;;15.63;67.63;100686.81;4994514;28;20077;-62
2023/08/16 05:44:42;;;;;;;10.18;3.85;;;;;;;15.77;67.63;100688.41;4985019;28;20058;-63
2023/08/16 05:47:09;;;;;;;8.10;4.03;;;;;;;15.80;66.94;100683.09;4985958;28;20050;-64
2023/08/16 05:49:35;;;;;;;7.00;3.72;;;;;;;15.77;66.60;100683.16;4989220;28;20057;-62
2023/08/16 05:52:02;;;;;;;6.60;3.17;;;;;;;15.71;66.50;100688.47;4989351;28;20112;-61
2023/08/16 05:54:29;;;;;;;6.72;3.53;;;;;;;15.67;66.96;100696.34;4992815;28;20053;-64
2023/08/16 05:56:55;;;;;;;8.52;4.63;;;;;;;15.65;66.90;100694.63;5002783;28;20050;-62
2023/08/16 05:59:22;;;;;;;7.53;3.90;;;;;;;15.64;67.35;100698.97;5003450;28;20565;-63
2023/08/16 06:01:48;;;;;;;8.25;3.85;;;;;;;15.63;67.33;100707.72;5002067;28;20046;-62
2023/08/16 06:04:15;;;;;;;9.05;3.67;;;;;;;15.64;67.08;100708.59;5008839;28;20672;-62
2023/08/16 06:06:42;;;;;;;6.47;3.45;;;;;;;15.63;67.44;100701.59;4993384;28;20093;-62
2023/08/16 06:09:09;;;;;;;6.00;2.88;;;;;;;15.63;66.98;100707.72;4989154;28;20615;-63
2023/08/16 06:11:36;;;;;;;8.00;3.20;;;;;;;15.63;67.25;100702.47;4990995;28;20046;-62
2023/08/16 06:14:03;;;;;;;5.55;3.05;;;;;;;15.64;67.23;100705.97;4990530;28;20053;-61
2023/08/16 06:16:30;;;;;;;7.55;3.10;;;;;;;15.68;67.39;100705.03;4989852;28;20051;-63
2023/08/16 06:18:57;;;;;;;6.90;3.40;;;;;;;15.73;66.96;100708.44;4988260;28;20542;-63
2023/08/16 06:21:23;;;;;;;10.85;3.22;;;;;;;15.78;67.52;100700.56;4986821;28;20046;-61
2023/08/16 06:23:51;;;;;;;7.00;3.17;;;;;;;15.84;67.17;100712.66;4989761;28;20043;-62
2023/08/16 06:26:17;;;;;;;11.95;3.75;;;;;;;15.88;67.35;100709.97;4987777;28;20042;-64
2023/08/16 06:28:46;;;;;;;7.72;3.13;;;;;;;15.92;66.96;100709.06;4990453;28;20061;-62
2023/08/16 06:31:12;;;;;;;6.85;3.13;;;;;;;15.95;67.67;100708.19;4993038;28;20137;-62
2023/08/16 06:33:43;;;;;;;6.53;2.28;;;;;;;15.98;67.02;100707.28;4988974;28;20046;-62
2023/08/16 06:36:10;;;;;;;7.50;3.22;;;;;;;16.01;67.41;100704.63;4984932;28;20069;-62
2023/08/16 06:38:36;;;;;;;5.93;2.65;;;;;;;16.05;66.98;100708.91;4997329;28;20056;-61
2023/08/16 06:41:03;;;;;;;7.90;2.58;;;;;;;16.07;67.50;100717.56;5010115;28;20046;-59
2023/08/16 06:43:30;;;;;;;6.32;2.75;;;;;;;16.10;66.98;100717.53;5004600;28;20069;-63
2023/08/16 06:45:57;;;;;;;6.50;3.47;;;;;;;16.18;66.92;100720.06;5006862;28;20038;-62
2023/08/16 06:48:24;;;;;;;7.65;3.15;;;;;;;16.31;67.31;100726.78;5006210;28;20132;-61
2023/08/16 06:50:50;;;;;;;7.85;3.13;;;;;;;16.45;66.93;100713.50;5006869;28;20060;-62
2023/08/16 06:53:17;;;;;;;7.10;2.90;;;;;;;16.63;67.34;100724.53;5009095;28;20411;-61
2023/08/16 06:55:43;;;;;;;5.50;2.85;;;;;;;16.78;67.08;100714.69;5009944;28;20068;-64
2023/08/16 06:58:10;;;;;;;6.72;2.50;;;;;;;16.90;66.94;100724.94;5008316;28;20053;-62
2023/08/16 07:00:41;;;;;;;5.18;2.65;;;;;;;17.24;66.78;100725.22;5008747;28;20077;-63
2023/08/16 07:03:07;;;;;;;3.38;1.67;;;;;;;17.79;66.13;100735.44;5008398;28;20125;-62
2023/08/16 07:05:34;;;;;;;6.43;1.98;;;;;;;18.30;65.38;100726.44;5008875;28;20041;-60
2023/08/16 07:08:01;;;;;;;3.35;1.58;;;;;;;18.79;65.00;100726.13;5009210;28;20038;-61
2023/08/16 07:10:27;;;;;;;4.10;1.70;;;;;;;19.21;63.58;100727.63;5008522;28;20144;-63
2023/08/16 07:12:55;;;;;;;3.78;1.55;;;;;;;19.60;63.27;100731.78;5006977;28;20052;-62
2023/08/16 07:15:22;;;;;;;3.35;1.52;;;;;;;19.97;62.36;100728.94;4997263;28;20054;-61
2023/08/16 07:17:48;;;;;;;5.63;1.60;;;;;;;20.34;61.78;100721.66;4988413;28;20407;-62
2023/08/16 07:20:15;;;;;;;2.58;1.70;;;;;;;20.59;60.94;100737.50;4987371;28;20057;-62
2023/08/16 07:22:41;;;;;;;4.05;1.60;;;;;;;20.77;60.58;100730.72;4992249;28;20686;-62
2023/08/16 07:25:10;;;;;;;4.65;1.90;;;;;;;20.86;60.45;100737.47;4989690;28;20045;-61
2023/08/16 07:27:37;;;;;;;2.70;1.70;;;;;;;20.78;59.76;100737.72;4985782;28;20046;-61
2023/08/16 07:30:04;;;;;;;2.00;1.30;;;;;;;20.65;60.10;100732.03;4988468;28;20134;-61
2023/08/16 07:32:34;;;;;;;3.88;1.58;;;;;;;20.65;60.17;100731.16;4987692;28;20080;-61
2023/08/16 07:35:01;;;;;;;3.72;1.73;;;;;;;20.72;60.17;100737.94;4988870;28;20042;-61
2023/08/16 07:37:31;;;;;;;2.25;1.42;;;;;;;20.83;59.64;100736.72;4988382;28;20104;-62
2023/08/16 07:39:59;;;;;;;3.35;2.05;;;;;;;20.89;59.18;100740.03;5002031;28;20048;-62
2023/08/16 07:42:25;;;;;;;1.83;1.10;;;;;;;20.96;58.97;100738.03;5005316;28;20041;-60
2023/08/16 07:44:53;;;;;;;2.67;1.20;;;;;;;21.02;58.46;100744.84;5002894;28;20407;-61
2023/08/16 07:47:20;;;;;;;3.72;1.48;;;;;;;21.03;59.07;100744.78;5007198;28;20033;-61
2023/08/16 07:49:47;;;;;;;2.35;1.30;;;;;;;21.25;59.36;100746.66;5008660;28;20049;-61
2023/08/16 07:52:13;;;;;;;2.63;1.40;;;;;;;21.82;58.63;100746.31;5007862;28;20072;-61
2023/08/16 07:54:40;;;;;;;2.38;1.13;;;;;;;22.41;57.70;100748.41;5008206;28;20127;-62
2023/08/16 07:57:07;;;;;;;3.13;1.50;;;;;;;22.90;56.46;100743.78;5004288;28;20098;-60
2023/08/16 07:59:36;;;;;;;3.25;1.30;;;;;;;23.23;55.40;100743.19;5001318;28;20053;-60
2023/08/16 08:02:04;;;;;;;1.75;0.95;;;;;;;23.54;54.82;100744.47;5002590;28;20054;-60
2023/08/16 08:04:33;;;;;;;1.75;0.93;;;;;;;23.99;54.33;100744.16;5007010;28;20820;-60
2023/08/16 08:07:00;;;;;;;2.03;0.95;;;;;;;24.43;53.52;100742.06;4994998;28;20042;-60
2023/08/16 08:09:26;;;;;;;2.13;1.02;;;;;;;24.90;51.99;100738.78;5002744;28;20621;-61
2023/08/16 08:11:53;;;;;;;2.97;0.80;;;;;;;25.23;51.98;100741.56;5007762;28;20096;-62
2023/08/16 08:14:20;;;;;;;2.90;1.50;;;;;;;25.52;51.14;100742.63;5007226;28;20430;-62
2023/08/16 08:16:46;;;;;;;1.38;0.77;;;;;;;25.89;50.02;100745.03;5005958;28;20435;-61
2023/08/16 08:19:13;;;;;;;1.98;0.63;;;;;;;25.99;50.13;100749.81;5007453;28;20050;-62
2023/08/16 08:21:40;;;;;;;1.65;0.50;;;;;;;26.29;49.91;100741.94;5007480;28;20046;-62
2023/08/16 08:24:06;;;;;;;1.90;0.85;;;;;;;26.68;48.41;100742.31;5007466;28;20054;-63
2023/08/16 08:26:33;;;;;;;1.75;1.02;;;;;;;27.08;48.05;100740.84;5003848;28;20046;-62
2023/08/16 08:29:00;;;;;;;2.05;1.02;;;;;;;27.24;46.95;100737.25;5004792;28;20061;-62
2023/08/16 08:31:27;;;;;;;2.70;0.70;;;;;;;27.17;46.93;100748.28;5003008;28;20060;-63
2023/08/16 08:33:54;;;;;;;1.85;0.70;;;;;;;27.05;46.12;100743.72;5006500;28;20041;-62
2023/08/16 08:36:21;;;;;;;1.45;0.90;;;;;;;26.91;46.20;100750.69;5007038;28;20049;-63
2023/08/16 08:38:49;;;;;;;2.28;0.90;;;;;;;26.84;46.21;100754.66;5001285;28;20580;-62
2023/08/16 08:41:18;;;;;;;3.25;0.80;;;;;;;26.71;45.47;100754.53;5002161;28;20052;-63
2023/08/16 08:43:50;;;;;;;1.58;0.85;;;;;;;26.73;45.59;100749.13;5003044;28;20394;-63
2023/08/16 08:46:28;;;;;;;2.45;0.70;;;;;;;26.88;46.35;100747.38;5006166;28;20052;-63
2023/08/16 08:48:58;;;;;;;1.23;0.60;;;;;;;26.84;45.50;100746.69;5006463;28;20042;-63
2023/08/16 08:51:28;;;;;;;0.95;0.63;;;;;;;27.04;44.92;100747.31;4999790;28;20053;-63
2023/08/16 08:53:56;;;;;;;3.90;1.08;;;;;;;27.46;44.90;100761.53;5007030;28;20042;-63
2023/08/16 08:56:24;;;;;;;1.98;1.25;;;;;;;27.77;44.89;100755.25;5006846;28;20125;-63
2023/08/16 08:58:56;;;;;;;2.35;0.82;;;;;;;27.92;44.82;100754.25;5004115;28;20554;-62
2023/08/16 09:01:39;;;;;;;1.70;1.00;;;;;;;28.14;44.44;100755.53;5003717;28;20069;-63
2023/08/16 09:04:09;;;;;;;3.05;0.82;;;;;;;28.30;43.20;100757.19;5006243;28;20049;-63
2023/08/16 09:06:36;;;;;;;1.17;0.70;;;;;;;28.50;43.42;100763.81;5007122;28;20042;-63
2023/08/16 09:09:04;;;;;;;2.67;1.00;;;;;;;28.41;43.22;100760.00;5001531;28;20046;-63
2023/08/16 09:11:31;;;;;;;3.20;0.70;;;;;;;28.22;43.16;100758.53;4998802;28;20065;-64
2023/08/16 09:14:02;;;;;;;2.60;0.90;;;;;;;27.99;43.62;100759.19;5003283;28;20128;-64
2023/08/16 09:16:29;;;;;;;1.52;0.85;;;;;;;27.74;43.95;100756.31;5006802;28;20920;-63
2023/08/16 09:18:55;;;;;;;2.15;0.93;;;;;;;27.58;43.78;100767.91;5004957;28;20045;-63
2023/08/16 09:21:24;;;;;;;2.33;0.95;;;;;;;27.49;44.47;100767.63;5006799;28;20050;-64
2023/08/16 09:23:56;;;;;;;1.42;0.88;;;;;;;27.41;43.79;100766.31;5005890;28;20049;-64
2023/08/16 09:26:23;;;;;;;1.90;0.77;;;;;;;27.43;44.10;100764.38;5006755;28;20089;-63
2023/08/16 09:28:58;;;;;;;1.40;1.05;;;;;;;27.37;43.65;100767.44;5001443;28;20069;-64
2023/08/16 09:31:29;;;;;;;2.45;0.80;;;;;;;27.38;44.25;100771.81;5004873;28;20136;-64
2023/08/16 09:34:01;;;;;;;2.38;1.00;;;;;;;27.39;43.55;100762.03;5001881;28;20403;-64
2023/08/16 09:36:29;;;;;;;2.15;1.00;;;;;;;27.68;44.89;100768.19;5001530;28;20061;-64
2023/08/16 09:39:11;;;;;;;1.98;1.17;;;;;;;28.10;43.54;100764.66;5007906;28;20092;-63
2023/08/16 09:41:48;;;;;;;2.25;0.70;;;;;;;28.41;42.61;100770.66;5004595;28;20050;-63
2023/08/16 09:44:15;;;;;;;1.88;1.05;;;;;;;28.59;41.75;100767.69;5001819;28;20402;-64
2023/08/16 09:46:42;;;;;;;1.63;0.70;;;;;;;28.57;41.25;100764.28;5010979;28;20054;-63
2023/08/16 09:49:12;;;;;;;2.53;0.90;;;;;;;28.41;42.27;100765.31;5010572;28;20069;-64
2023/08/16 09:51:40;;;;;;;1.50;0.50;;;;;;;28.28;41.67;100764.41;5007451;28;20054;-64
2023/08/16 09:54:12;;;;;;;2.22;1.20;;;;;;;28.13;42.08;100760.94;5008658;28;20042;-64
2023/08/16 09:56:41;;;;;;;2.28;0.90;;;;;;;28.07;41.89;100757.72;5010525;28;20542;-63
2023/08/16 09:59:29;;;;;;;2.17;1.30;;;;;;;28.28;42.58;100759.94;5009291;28;20069;-63
2023/08/16 10:01:59;;;;;;;1.35;0.85;;;;;;;28.57;42.15;100758.94;5010911;28;20049;-63
2023/08/16 10:04:29;;;;;;;1.33;0.60;;;;;;;28.86;41.65;100753.41;5009586;28;20121;-63
2023/08/16 10:07:00;;;;;;;2.05;0.82;;;;;;;29.12;40.37;100753.44;4994276;28;20041;-63
2023/08/16 10:09:32;;;;;;;1.10;0.90;;;;;;;29.17;40.87;100751.31;4979920;28;20042;-62
2023/08/16 10:12:02;;;;;;;1.70;1.13;;;;;;;29.30;40.73;100750.41;4984362;28;20047;-62
2023/08/16 10:14:30;;;;;;;2.13;1.92;;;;;;;29.44;40.96;100752.97;4990394;28;20513;-63
2023/08/16 10:17:01;;;;;;;4.30;0.95;;;;;;;29.56;40.96;100750.41;4988537;28;20415;-63
2023/08/16 10:19:39;;;;;;;0.90;0.60;;;;;;;29.47;39.14;100746.53;4989988;28;20578;-64
2023/08/16 10:22:21;;;;;;;1.38;0.80;;;;;;;29.36;39.80;100739.31;4990070;28;20057;-63
2023/08/16 10:25:11;;;;;;;0.98;0.70;;;;;;;29.29;39.59;100740.72;4986361;28;20117;-63
2023/08/16 10:27:41;;;;;;;1.73;0.80;;;;;;;29.40;40.81;100746.16;4981071;28;20058;-64
2023/08/16 10:30:11;;;;;;;1.42;0.80;;;;;;;29.57;39.46;100741.44;4989297;28;20050;-63
2023/08/16 10:32:42;;;;;;;1.23;0.80;;;;;;;29.65;38.96;100744.38;4990069;28;20038;-64
2023/08/16 10:35:10;;;;;;;1.42;0.70;;;;;;;29.64;38.29;100748.03;4987251;28;20084;-63
2023/08/16 10:37:38;;;;;;;1.42;0.68;;;;;;;29.55;38.11;100749.53;4990220;28;20133;-63
2023/08/16 10:40:23;;;;;;;1.27;0.50;;;;;;;29.46;38.94;100743.03;5004370;28;20703;-63
2023/08/16 10:45:34;;;;;;;4.40;0.82;;;;;;;29.63;37.43;100744.53;5055981;27;20412;-64
2023/08/16 10:48:16;;;;;;;0.95;0.82;;;;;;;29.74;37.34;100742.88;5035815;28;20075;-63
2023/08/16 10:50:56;;;;;;;1.63;0.70;;;;;;;30.00;38.33;100748.97;5035798;28;20045;-63
2023/08/16 10:53:25;;;;;;;0.85;0.63;;;;;;;30.29;37.02;100742.41;5039840;28;20453;-64
2023/08/16 10:55:55;;;;;;;1.67;0.70;;;;;;;30.44;36.59;100748.44;5033638;28;20458;-63
2023/08/16 10:58:23;;;;;;;0.85;0.57;;;;;;;30.50;36.73;100750.59;5042632;28;20557;-62
2023/08/16 11:03:33;;;;;;;1.52;0.73;;;;;;;30.77;36.44;100749.47;5024289;28;20396;-64
2023/08/16 11:06:07;;;;;;;2.15;1.02;;;;;;;31.01;36.14;100753.91;4994169;28;20054;-64
2023/08/16 11:08:33;;;;;;;0.88;0.75;;;;;;;31.18;35.57;100749.03;4992487;28;20415;-63
2023/08/16 11:11:04;;;;;;;1.17;0.70;;;;;;;31.13;35.13;100740.50;4995530;28;20078;-63
2023/08/16 11:13:32;;;;;;;1.77;0.93;;;;;;;30.98;35.49;100748.78;4993247;28;20046;-63
2023/08/16 11:16:10;;;;;;;0.90;0.63;;;;;;;30.86;35.48;100749.75;4992424;28;20051;-63
2023/08/16 11:18:39;;;;;;;0.90;0.63;;;;;;;30.87;35.93;100746.09;4993143;28;20054;-64
2023/08/16 11:21:08;;;;;;;1.30;0.85;;;;;;;30.94;35.75;100741.97;4983591;28;20042;-62
2023/08/16 11:23:37;;;;;;;1.10;0.60;;;;;;;30.99;35.75;100739.78;4993929;28;20042;-63
2023/08/16 11:26:05;;;;;;;1.17;0.85;;;;;;;30.94;35.12;100741.97;4994887;28;20046;-63
2023/08/16 11:28:33;;;;;;;1.77;0.93;;;;;;;30.84;34.47;100744.53;4996851;28;20050;-63
2023/08/16 11:31:02;;;;;;;1.17;0.60;;;;;;;30.76;35.61;100742.44;4987410;28;20050;-61
2023/08/16 11:36:10;;;;;;;2.55;1.58;;;;;;;30.52;34.14;100743.34;5076713;27;20413;-64
2023/08/16 11:38:39;;;;;;;2.75;1.00;;;;;;;30.34;34.81;100750.09;5043999;28;20041;-62
2023/08/16 11:41:07;;;;;;;2.33;1.20;;;;;;;30.41;36.10;100740.63;5035885;28;20045;-62